West Richfield, Ohio
Current Conditions -  °F | °C
As of 7:51 PM on Friday 19 Dec 2014 (Local Time) from KCLE Reporting Station
Overcast Overcast  
Wind Chill: 20°   Ceiling: 2300
Heat Index: 29°   Visibility: 10mi
Dew Point: 21°   Wind: 9mph
Humidity: 72%   Direction: 250°WSW
Pressure: 30.35"   Gusts: NA
Location:  41.2393°N, 81.6428°W
Report Text: KCLE 200051Z 25008KT 10SM OVC023 M02/M06 A3035 RMK AO2 SLP287 T10171061
Loading
Personal Weather Stations






























Interactive Weather Map New forecast layout! Learn more

10-Day Weather Forecast

Advertisements
Track Severe Weather on mobile